Observations for MANCHESTER INTL, United Kingdom (EGCC)

EGCC 220520Z VRB02KT 7000 FEW005 16/16 Q1019 TEMPO 4000 BR  
EGCC 220450Z AUTO VRB02KT 6000 FEW046 16/16 Q1019 TEMPO 4000 BR 
EGCC 220420Z AUTO VRB02KT 6000 NCD 16/16 Q1019 TEMPO 4000 BR
EGCC 220350Z VRB01KT 7000 NSC 16/15 Q1019 TEMPO 4000 BR 
EGCC 220320Z VRB03KT 9000 NSC 16/15 Q1019 TEMPO 4000 BR 
EGCC 220250Z AUTO 12003KT 8000 NCD 16/15 Q1019 TEMPO 4000 BR
EGCC 220220Z AUTO VRB02KT 9999 NCD 17/16 Q1019 TEMPO 4000 BR
EGCC 220150Z AUTO 12003KT 9999 NCD 16/15 Q1019 TEMPO 4000 BR
EGCC 220120Z AUTO VRB02KT 9999 NCD 16/15 Q1019 TEMPO 4000 BR
EGCC 220050Z AUTO VRB02KT 9999 NCD 17/15 Q1019 TEMPO 4000 BR
EGCC 220020Z AUTO VRB02KT 9999 NCD 17/16 Q1019 TEMPO BKN012 
EGCC 212350Z AUTO VRB01KT 9999 FEW035 18/16 Q1019 TEMPO BKN012  
EGCC 212320Z AUTO VRB02KT 9999 BKN031 18/16 Q1019 TEMPO 4000 BR BKN012  
EGCC 212250Z AUTO 18004KT 140V220 9999 OVC025 18/16 Q1020 TEMPO BKN012  
EGCC 212220Z AUTO VRB02KT 9999 BKN024 OVC031 18/16 Q1020 TEMPO BKN012   
EGCC 212150Z AUTO VRB02KT 9999 BKN022 OVC026 18/16 Q1020 TEMPO BKN012   
EGCC 212120Z AUTO VRB02KT 9999 OVC022/// //////TCU 18/15 Q1020 TEMPO BKN013 
EGCC 212050Z AUTO VRB02KT 9999 OVC023 17/15 Q1020 TEMPO BKN013  
EGCC 212020Z AUTO VRB03KT 9999 BKN027 OVC043 17/15 Q1020 TEMPO BKN013   
EGCC 211950Z AUTO VRB01KT 9999 SCT019 BKN043 17/15 Q1020 TEMPO BKN013   
EGCC 211920Z AUTO VRB01KT 9999 BKN018 OVC033 17/16 Q1020 TEMPO BKN013   
EGCC 211850Z AUTO VRB02KT 9999 OVC016 17/16 Q1020 TEMPO BKN013  
EGCC 211820Z AUTO VRB02KT 9999 FEW009 OVC013 17/16 Q1020 BECMG SCT013   
EGCC 211750Z VRB03KT 4500 HZ SCT009 OVC013 17/15 Q1020 BECMG 6000 NSW SCT013
EGCC 211750Z AUTO VRB03KT 9999 SCT009 OVC013 18/15 Q1020 BECMG SCT015
EGCC 211720Z AUTO 15006KT 9999 BKN009 OVC037 17/15 Q1020 BECMG SCT012   
EGCC 211650Z 17004KT 120V220 9999 SCT012 BKN017 18/15 Q1020 TEMPO BKN014
EGCC 211620Z AUTO VRB03KT 9999 OVC013 18/15 Q1020 BECMG SCT016  
EGCC 211550Z AUTO 14004KT 090V180 9999 OVC014 18/15 Q1020 BECMG SCT015  
EGCC 211520Z AUTO VRB03KT 9999 OVC016 18/15 Q1020 TEMPO BKN014  
EGCC 211450Z AUTO VRB03KT 9999 -RA OVC016 18/15 Q1020 TEMPO BKN012  
EGCC 211420Z AUTO 17004KT 080V230 9999 BKN016 OVC020 18/14 Q1020 TEMPO BKN014   
EGCC 211350Z AUTO 17004KT 080V230 9999 BKN015 OVC019 18/14 Q1020 TEMPO BKN014   
EGCC 211320Z AUTO 13005KT 060V180 9999 OVC014 17/14 Q1020 NOSIG 
EGCC 211250Z AUTO 15005KT 090V260 9999 OVC014 17/14 Q1020 TEMPO SCT014  
EGCC 211220Z VRB03KT 9999 BKN015 17/14 Q1021 TEMPO BKN014   
EGCC 211150Z VRB05KT 9999 FEW015 BKN020 17/13 Q1021 TEMPO BKN014
EGCC 211120Z VRB05KT 9999 FEW014 BKN020 17/13 Q1021 TEMPO BKN012
EGCC 211050Z 16005KT 100V220 9999 FEW013 BKN019 16/13 Q1021 NOSIG   
EGCC 211020Z VRB04KT 9999 FEW013 BKN019 16/13 Q1021 TEMPO BKN012
EGCC 210950Z 19004KT 140V230 9999 FEW012 BKN018 16/13 Q1021 TEMPO BKN012
EGCC 210920Z 19006KT 140V230 9999 SCT013 BKN019 16/13 Q1021 TEMPO BKN012
EGCC 210850Z 19007KT 9999 FEW011 BKN020 16/13 Q1021 TEMPO BKN012
EGCC 210820Z AUTO VRB03KT 9999 BKN013 16/13 Q1021 TEMPO SCT012  
EGCC 210750Z VRB03KT 9999 FEW011 SCT024 16/13 Q1021 TEMPO BKN012
EGCC 210720Z AUTO VRB03KT 9999 BKN011 OVC021 15/13 Q1021 TEMPO SCT012   
EGCC 210650Z AUTO VRB02KT 9999 FEW013 OVC020 15/13 Q1021 TEMPO BKN012   
EGCC 210620Z VRB01KT 9999 FEW013 BKN021 14/13 Q1021 TEMPO BKN012
EGCC 210550Z AUTO VRB02KT 9999 SCT012 OVC017 14/13 Q1021 TEMPO BKN012   
EGCC 210520Z AUTO 09001KT 9999 OVC016 14/12 Q1021 NOSIG 
EGCC 210450Z AUTO VRB01KT 9999 OVC013 14/12 Q1021 NOSIG